createdAt,value
2018-04-17T00:00:45.472Z,85.65
2018-04-17T00:01:51.830Z,85.69
2018-04-17T00:02:57.292Z,85.66
2018-04-17T00:04:05.894Z,85.63
2018-04-17T00:05:12.301Z,85.63
2018-04-17T00:06:17.784Z,85.64
2018-04-17T00:07:23.570Z,85.94
2018-04-17T00:08:28.432Z,86.15
2018-04-17T00:09:32.549Z,86.10
2018-04-17T00:10:38.459Z,86.07
2018-04-17T00:11:43.238Z,86.08
2018-04-17T00:12:47.991Z,85.98
2018-04-17T00:13:52.692Z,86.13
2018-04-17T00:14:57.412Z,86.60
2018-04-17T00:16:02.684Z,87.08
2018-04-17T00:17:07.716Z,87.28
2018-04-17T00:18:14.123Z,87.03
2018-04-17T00:19:20.822Z,86.84
2018-04-17T00:20:27.071Z,86.49
2018-04-17T00:21:31.979Z,86.03
2018-04-17T00:22:36.842Z,85.75
2018-04-17T00:23:41.995Z,85.56
2018-04-17T00:24:48.332Z,85.50
2018-04-17T00:25:53.888Z,85.59
2018-04-17T00:26:58.653Z,85.88
2018-04-17T00:28:02.860Z,86.36
2018-04-17T00:29:07.330Z,86.66
2018-04-17T00:30:14.157Z,86.82
2018-04-17T00:31:18.901Z,86.76
2018-04-17T00:32:23.016Z,86.38
2018-04-17T00:33:28.403Z,86.08
2018-04-17T00:34:33.011Z,85.90
2018-04-17T00:35:39.027Z,85.87
2018-04-17T00:36:44.775Z,85.63
2018-04-17T00:37:51.883Z,85.49
2018-04-17T00:38:57.386Z,85.59
2018-04-17T00:40:02.349Z,85.57
2018-04-17T00:41:07.727Z,85.55
2018-04-17T00:42:12.912Z,85.68
2018-04-17T00:43:19.198Z,85.77
2018-04-17T00:44:25.001Z,85.77
2018-04-17T00:45:29.491Z,85.74
2018-04-17T00:46:34.629Z,85.74
2018-04-17T00:47:40.649Z,85.89
2018-04-17T00:48:45.838Z,85.94
2018-04-17T00:49:51.067Z,85.96
2018-04-17T00:50:57.207Z,85.91
2018-04-17T00:52:03.166Z,85.80
2018-04-17T00:53:16.981Z,85.73
2018-04-17T00:54:23.865Z,85.62
2018-04-17T00:55:30.496Z,85.54
2018-04-17T00:56:35.587Z,85.48
2018-04-17T00:57:40.359Z,85.49
2018-04-17T00:58:45.638Z,85.65
2018-04-17T00:59:50.371Z,85.93
2018-04-17T01:00:54.973Z,86.24
2018-04-17T01:01:59.119Z,86.63
2018-04-17T01:03:03.817Z,86.90
2018-04-17T01:04:08.547Z,86.97
2018-04-17T01:05:13.923Z,87.07
2018-04-17T01:06:18.774Z,87.18
2018-04-17T01:07:26.928Z,87.47
2018-04-17T01:08:32.331Z,87.62
2018-04-17T01:09:37.215Z,87.56
2018-04-17T01:10:41.315Z,87.43
2018-04-17T01:11:48.421Z,87.28
2018-04-17T01:12:53.156Z,87.28
2018-04-17T01:14:01.370Z,87.29
2018-04-17T01:15:08.175Z,87.25
2018-04-17T01:16:15.382Z,87.16
2018-04-17T01:17:19.937Z,87.12
2018-04-17T01:18:25.362Z,87.15
2018-04-17T01:19:30.161Z,87.08
2018-04-17T01:20:36.403Z,86.97
2018-04-17T01:21:40.616Z,86.95
2018-04-17T01:22:45.916Z,86.90
2018-04-17T01:23:51.183Z,86.83
2018-04-17T01:24:55.936Z,86.78
2018-04-17T01:26:00.692Z,86.80
2018-04-17T01:27:05.850Z,86.85
2018-04-17T01:28:11.110Z,86.89
2018-04-17T01:29:15.856Z,86.80
2018-04-17T01:30:21.737Z,86.71
2018-04-17T01:31:27.111Z,86.65
2018-04-17T01:32:32.273Z,86.56
2018-04-17T01:33:38.023Z,86.58
2018-04-17T01:34:42.839Z,86.59
2018-04-17T01:35:50.535Z,86.61
2018-04-17T01:36:56.158Z,86.61
2018-04-17T01:38:00.372Z,86.57
2018-04-17T01:39:04.798Z,86.58
2018-04-17T01:40:09.576Z,86.53
2018-04-17T01:41:15.031Z,86.44
2018-04-17T01:42:19.836Z,86.39
2018-04-17T01:43:25.026Z,86.32
2018-04-17T01:44:29.622Z,86.29
2018-04-17T01:45:35.532Z,86.30
2018-04-17T01:46:41.183Z,86.26
2018-04-17T01:47:46.707Z,86.18
2018-04-17T01:48:51.442Z,86.15
2018-04-17T01:49:56.857Z,86.29
2018-04-17T01:51:01.710Z,86.49
2018-04-17T01:52:06.687Z,86.75
2018-04-17T01:53:13.236Z,86.96
2018-04-17T01:54:26.397Z,87.19
2018-04-17T01:55:31.726Z,87.43
2018-04-17T01:56:37.105Z,87.52
2018-04-17T01:57:42.484Z,87.55
2018-04-17T01:58:48.466Z,87.53
2018-04-17T01:59:57.104Z,87.53
2018-04-17T02:01:02.981Z,87.39
2018-04-17T02:02:08.087Z,87.27
2018-04-17T02:03:13.651Z,87.19
2018-04-17T02:04:19.220Z,87.03
2018-04-17T02:05:24.309Z,86.78
2018-04-17T02:06:29.820Z,86.50
2018-04-17T02:07:34.476Z,86.30
2018-04-17T02:08:38.952Z,86.15
2018-04-17T02:09:44.432Z,86.16
2018-04-17T02:10:49.852Z,86.39
2018-04-17T02:11:54.608Z,86.51
2018-04-17T02:12:59.405Z,86.67
2018-04-17T02:14:04.463Z,86.85
2018-04-17T02:15:09.569Z,87.01
2018-04-17T02:16:15.671Z,87.23
2018-04-17T02:17:20.395Z,87.29
2018-04-17T02:18:26.399Z,87.31
2018-04-17T02:19:30.997Z,87.34
2018-04-17T02:20:36.673Z,87.26
2018-04-17T02:21:41.651Z,87.14
2018-04-17T02:22:54.152Z,87.06
2018-04-17T02:23:59.142Z,87.04
2018-04-17T02:25:04.328Z,87.01
2018-04-17T02:26:08.437Z,87.11
2018-04-17T02:27:13.040Z,87.16
2018-04-17T02:28:17.889Z,87.30
2018-04-17T02:29:22.650Z,87.47
2018-04-17T02:30:27.285Z,87.63
2018-04-17T02:31:34.281Z,87.69
2018-04-17T02:32:38.754Z,87.75
2018-04-17T02:33:43.567Z,87.78
2018-04-17T02:34:48.521Z,87.76
2018-04-17T02:35:53.456Z,87.67
2018-04-17T02:36:58.208Z,87.58
2018-04-17T02:38:03.305Z,87.51
2018-04-17T02:39:07.486Z,87.34
2018-04-17T02:40:12.282Z,87.15
2018-04-17T02:41:16.372Z,87.05
2018-04-17T02:42:22.498Z,86.91
2018-04-17T02:43:27.240Z,86.86
2018-04-17T02:44:32.365Z,86.85
2018-04-17T02:45:37.929Z,86.84
2018-04-17T02:46:42.709Z,86.90
2018-04-17T02:47:47.381Z,86.96
2018-04-17T02:48:53.568Z,87.01
2018-04-17T02:49:59.390Z,87.21
2018-04-17T02:51:04.345Z,87.39
2018-04-17T02:52:09.547Z,87.56
2018-04-17T02:53:14.927Z,87.74
2018-04-17T02:54:19.762Z,87.90
2018-04-17T02:56:39.909Z,88.13
2018-04-17T02:57:45.000Z,88.12
2018-04-17T02:58:50.601Z,88.19
2018-04-17T02:59:54.740Z,88.23
2018-04-17T03:00:59.770Z,88.22
2018-04-17T03:02:07.442Z,88.11
2018-04-17T03:03:12.151Z,88.01
2018-04-17T03:04:17.243Z,87.85
2018-04-17T03:05:22.012Z,87.72
2018-04-17T03:06:26.973Z,87.64
2018-04-17T03:07:32.438Z,87.56
2018-04-17T03:08:37.114Z,87.47
2018-04-17T03:09:41.588Z,87.37
2018-04-17T03:10:46.682Z,87.22
2018-04-17T03:11:50.791Z,87.05
2018-04-17T03:12:55.545Z,86.88
2018-04-17T03:14:03.095Z,86.76
2018-04-17T03:15:08.117Z,86.66
2018-04-17T03:16:12.506Z,86.60
2018-04-17T03:17:17.561Z,86.51
2018-04-17T03:18:23.179Z,86.45
2018-04-17T03:19:27.432Z,86.49
2018-04-17T03:20:31.519Z,86.48
2018-04-17T03:21:35.967Z,86.44
2018-04-17T03:22:40.385Z,86.26
2018-04-17T03:23:45.552Z,86.24
2018-04-17T03:24:50.387Z,86.18
2018-04-17T03:25:56.710Z,86.23
2018-04-17T03:27:00.921Z,86.21
2018-04-17T03:28:05.667Z,86.20
2018-04-17T03:29:10.849Z,86.15
2018-04-17T03:30:16.775Z,86.11
2018-04-17T03:31:23.224Z,86.10
2018-04-17T03:32:31.669Z,86.19
2018-04-17T03:33:36.412Z,86.22
2018-04-17T03:34:45.867Z,86.30
2018-04-17T03:35:53.151Z,86.57
2018-04-17T03:37:01.166Z,86.97
2018-04-17T03:38:06.536Z,87.21
2018-04-17T03:39:11.129Z,87.34
2018-04-17T03:40:19.430Z,87.51
2018-04-17T03:41:24.144Z,87.51
2018-04-17T03:42:28.953Z,87.49
2018-04-17T03:43:35.523Z,87.72
2018-04-17T03:44:40.388Z,87.75
2018-04-17T03:45:45.901Z,87.79
2018-04-17T03:46:51.288Z,87.81
2018-04-17T03:47:56.669Z,87.67
2018-04-17T03:49:01.198Z,87.68
2018-04-17T03:50:06.916Z,87.62
2018-04-17T03:51:12.015Z,87.66
2018-04-17T03:52:16.863Z,87.60
2018-04-17T03:53:25.508Z,87.51
2018-04-17T03:54:29.809Z,87.44
2018-04-17T03:55:36.559Z,87.33
2018-04-17T03:56:41.887Z,87.13
2018-04-17T03:57:46.606Z,86.91
2018-04-17T03:58:58.738Z,86.74
2018-04-17T04:00:05.841Z,86.79
2018-04-17T04:01:11.487Z,86.75
2018-04-17T04:02:16.801Z,86.80
2018-04-17T04:03:26.147Z,86.80
2018-04-17T04:04:31.552Z,86.91
2018-04-17T04:05:37.047Z,87.00
2018-04-17T04:06:42.437Z,87.21
2018-04-17T04:07:47.839Z,87.24
2018-04-17T04:08:57.115Z,87.23
2018-04-17T04:10:02.424Z,87.12
2018-04-17T04:11:07.249Z,87.04
2018-04-17T04:12:12.721Z,86.95
2018-04-17T04:13:16.923Z,86.88
2018-04-17T04:14:26.204Z,86.83
2018-04-17T04:15:30.624Z,86.80
2018-04-17T04:16:45.163Z,86.90
2018-04-17T04:18:00.067Z,86.96
2018-04-17T04:19:15.253Z,86.86
2018-04-17T04:20:31.466Z,86.75
2018-04-17T04:22:46.376Z,86.63
2018-04-17T04:25:10.287Z,86.41
2018-04-17T04:26:25.153Z,86.29
2018-04-17T04:27:29.950Z,86.27
2018-04-17T04:28:37.833Z,86.37
2018-04-17T04:29:43.383Z,86.50
2018-04-17T04:30:48.497Z,86.58
2018-04-17T04:31:54.050Z,86.63
2018-04-17T04:32:59.419Z,86.60
2018-04-17T04:34:05.232Z,86.70
2018-04-17T04:35:10.707Z,86.63
2018-04-17T04:36:14.868Z,86.61
2018-04-17T04:37:20.267Z,86.58
2018-04-17T04:38:27.103Z,86.50
2018-04-17T04:39:32.314Z,86.49
2018-04-17T04:40:38.311Z,86.59
2018-04-17T04:41:43.520Z,86.62
2018-04-17T04:42:48.235Z,86.64
2018-04-17T04:43:53.486Z,86.80
2018-04-17T04:44:59.125Z,86.87
2018-04-17T04:46:04.260Z,86.88
2018-04-17T04:47:08.962Z,87.02
2018-04-17T04:48:13.723Z,87.07
2018-04-17T04:49:18.455Z,87.10
2018-04-17T04:50:23.890Z,87.12
2018-04-17T04:51:28.713Z,87.21
2018-04-17T04:52:33.704Z,87.42
2018-04-17T04:53:39.507Z,87.54
2018-04-17T04:54:44.901Z,87.55
2018-04-17T04:55:52.657Z,87.62
2018-04-17T04:57:05.981Z,87.79
2018-04-17T04:58:11.366Z,87.91
2018-04-17T04:59:16.866Z,88.09
2018-04-17T05:00:21.491Z,88.37
2018-04-17T05:01:28.967Z,88.64
2018-04-17T05:02:33.106Z,88.87
2018-04-17T05:03:37.631Z,89.06
2018-04-17T05:04:43.180Z,89.31
2018-04-17T05:05:47.923Z,89.42
2018-04-17T05:06:53.313Z,89.46
2018-04-17T05:07:57.707Z,89.43
2018-04-17T05:09:01.875Z,89.42
2018-04-17T05:10:06.996Z,89.40
2018-04-17T05:11:12.915Z,89.41
2018-04-17T05:12:19.709Z,89.37
2018-04-17T05:13:26.454Z,89.41
2018-04-17T05:14:31.224Z,89.42
2018-04-17T05:15:37.416Z,89.47
2018-04-17T05:16:42.565Z,89.54
2018-04-17T05:17:47.401Z,89.55
2018-04-17T05:18:52.424Z,89.63
2018-04-17T05:19:58.850Z,89.66
2018-04-17T05:21:03.590Z,89.68
2018-04-17T05:22:08.374Z,89.69
2018-04-17T05:23:13.000Z,89.74
2018-04-17T05:24:17.848Z,89.74
2018-04-17T05:25:22.868Z,89.71
2018-04-17T05:26:27.616Z,89.67
2018-04-17T05:27:32.135Z,89.57
2018-04-17T05:28:37.540Z,89.41
2018-04-17T05:29:43.681Z,89.16
2018-04-17T05:30:48.639Z,89.00
2018-04-17T05:31:53.412Z,88.86
2018-04-17T05:32:59.394Z,88.76
2018-04-17T05:34:05.013Z,88.59
2018-04-17T05:35:10.659Z,88.55
2018-04-17T05:36:15.554Z,88.37
2018-04-17T05:37:20.316Z,88.21
2018-04-17T05:38:25.117Z,88.04
2018-04-17T05:39:31.487Z,87.70
2018-04-17T05:40:37.244Z,87.49
2018-04-17T05:41:42.191Z,87.35
2018-04-17T05:42:47.854Z,87.02
2018-04-17T05:43:52.232Z,87.19
2018-04-17T05:44:57.036Z,87.22
2018-04-17T05:46:03.143Z,87.04
2018-04-17T05:47:08.453Z,86.62
2018-04-17T05:48:15.458Z,85.99
2018-04-17T05:49:20.641Z,85.80
2018-04-17T05:50:27.140Z,85.78
2018-04-17T05:51:33.711Z,85.72
2018-04-17T05:52:39.707Z,85.01
2018-04-17T05:53:45.545Z,85.46
2018-04-17T05:54:49.674Z,85.61
2018-04-17T05:55:54.750Z,85.05
2018-04-17T05:57:00.411Z,84.85
2018-04-17T05:58:05.955Z,83.95
2018-04-17T05:59:10.464Z,83.54
2018-04-17T06:00:18.171Z,84.39
2018-04-17T06:01:22.990Z,84.29
2018-04-17T06:02:28.762Z,83.90
2018-04-17T06:03:35.397Z,83.43
2018-04-17T06:04:40.309Z,83.06
2018-04-17T06:05:47.587Z,82.92
2018-04-17T06:06:53.503Z,82.86
2018-04-17T06:08:05.683Z,83.00
2018-04-17T06:09:09.828Z,82.80
2018-04-17T06:10:15.381Z,82.70
2018-04-17T06:11:20.105Z,82.09
2018-04-17T06:12:25.491Z,82.64
2018-04-17T06:13:30.274Z,82.77
2018-04-17T06:14:35.398Z,82.74
2018-04-17T06:15:40.274Z,82.35
2018-04-17T06:16:46.534Z,82.13
2018-04-17T06:17:51.162Z,82.47
2018-04-17T06:18:58.577Z,81.80
2018-04-17T06:20:03.494Z,81.54
2018-04-17T06:21:09.185Z,81.79
2018-04-17T06:22:15.886Z,81.30
2018-04-17T06:23:20.904Z,80.09
2018-04-17T06:24:26.315Z,78.46
2018-04-17T06:25:31.310Z,78.24
2018-04-17T06:26:37.886Z,76.89
2018-04-17T06:27:43.862Z,76.21
2018-04-17T06:28:48.748Z,76.53
2018-04-17T06:29:54.257Z,78.30
2018-04-17T06:31:00.750Z,78.20
2018-04-17T06:32:06.410Z,76.46
2018-04-17T06:33:11.813Z,75.99
2018-04-17T06:34:16.026Z,75.99
2018-04-17T06:35:21.072Z,74.95
2018-04-17T06:36:26.872Z,74.88
2018-04-17T06:37:33.117Z,75.50
2018-04-17T06:38:42.129Z,77.25
2018-04-17T06:39:47.452Z,77.52
2018-04-17T06:40:53.174Z,76.32
2018-04-17T06:41:59.664Z,74.55
2018-04-17T06:43:03.886Z,74.80
2018-04-17T06:44:10.088Z,73.48
2018-04-17T06:45:16.558Z,72.46
2018-04-17T06:46:21.002Z,74.19
2018-04-17T06:47:26.385Z,74.86
2018-04-17T06:48:31.975Z,74.32
2018-04-17T06:49:36.772Z,72.97
2018-04-17T06:50:43.198Z,73.25
2018-04-17T06:51:47.766Z,73.04
2018-04-17T06:52:53.240Z,71.04
2018-04-17T06:53:57.378Z,71.83
2018-04-17T06:55:02.155Z,71.23
2018-04-17T06:56:07.058Z,70.14
2018-04-17T06:57:17.694Z,69.99
2018-04-17T06:58:23.982Z,68.58
2018-04-17T06:59:31.505Z,69.69
2018-04-17T07:00:37.624Z,66.71
2018-04-17T07:01:50.954Z,68.22
2018-04-17T07:02:55.835Z,65.84
2018-04-17T07:03:59.960Z,64.46
2018-04-17T07:05:04.912Z,62.30
2018-04-17T07:06:09.992Z,63.26
2018-04-17T07:07:14.205Z,65.16
2018-04-17T07:08:18.965Z,66.01
2018-04-17T07:09:24.287Z,64.24
2018-04-17T07:10:30.659Z,64.39
2018-04-17T07:11:36.315Z,62.11
2018-04-17T07:12:42.031Z,61.42
2018-04-17T07:13:47.652Z,63.21
2018-04-17T07:14:52.487Z,63.09
2018-04-17T07:15:58.657Z,61.17
2018-04-17T07:17:04.093Z,62.53
2018-04-17T07:18:08.986Z,62.39
2018-04-17T07:19:13.715Z,60.17
2018-04-17T07:20:19.450Z,59.16
2018-04-17T07:21:24.429Z,59.78
2018-04-17T07:22:28.567Z,60.74
2018-04-17T07:23:32.855Z,59.08
2018-04-17T07:24:38.249Z,57.67
2018-04-17T07:25:43.161Z,58.85
2018-04-17T07:26:48.732Z,58.86
2018-04-17T07:27:52.864Z,57.28
2018-04-17T07:28:58.602Z,55.33
2018-04-17T07:30:06.413Z,55.79
2018-04-17T07:31:12.239Z,55.95
2018-04-17T07:32:16.992Z,55.48
2018-04-17T07:33:23.974Z,56.29
2018-04-17T07:34:30.113Z,54.72
2018-04-17T07:35:34.993Z,55.33
2018-04-17T07:36:40.552Z,55.60
2018-04-17T07:37:46.162Z,56.18
2018-04-17T07:38:54.495Z,56.41
2018-04-17T07:40:00.120Z,55.11
2018-04-17T07:41:05.512Z,55.03
2018-04-17T07:42:10.875Z,53.46
2018-04-17T07:43:16.551Z,54.16
2018-04-17T07:44:21.697Z,54.14
2018-04-17T07:45:27.784Z,53.60
2018-04-17T07:46:33.103Z,55.65
2018-04-17T07:47:39.017Z,54.26
2018-04-17T07:48:49.058Z,54.00
2018-04-17T07:49:53.922Z,51.43
2018-04-17T07:50:59.128Z,52.74
2018-04-17T07:52:07.052Z,53.82
2018-04-17T07:53:11.167Z,54.16
2018-04-17T07:54:16.625Z,53.47
2018-04-17T07:55:22.170Z,53.99
2018-04-17T07:56:27.577Z,54.45
2018-04-17T07:57:39.650Z,53.44
2018-04-17T07:58:44.432Z,53.43
2018-04-17T07:59:49.682Z,53.17
2018-04-17T08:00:55.125Z,53.58
2018-04-17T08:02:01.409Z,52.73
2018-04-17T08:03:07.476Z,52.55
2018-04-17T08:04:12.075Z,52.97
2018-04-17T08:05:20.625Z,53.16
2018-04-17T08:06:28.044Z,53.67
2018-04-17T08:07:32.240Z,52.39
2018-04-17T08:08:36.984Z,51.53
2018-04-17T08:09:42.809Z,51.48
2018-04-17T08:10:47.204Z,52.98
2018-04-17T08:11:51.682Z,52.50
2018-04-17T08:12:57.757Z,53.20
2018-04-17T08:14:04.015Z,53.01
2018-04-17T08:15:09.354Z,51.50
2018-04-17T08:16:14.809Z,50.15
2018-04-17T08:17:20.325Z,46.82
2018-04-17T08:18:27.998Z,48.51
2018-04-17T08:19:32.910Z,48.71
2018-04-17T08:20:38.418Z,48.80
2018-04-17T08:21:43.347Z,49.08
2018-04-17T08:22:49.128Z,49.07
2018-04-17T08:23:53.948Z,47.94
2018-04-17T08:24:58.076Z,48.88
2018-04-17T08:26:10.095Z,48.75
2018-04-17T08:27:15.370Z,48.90
2018-04-17T08:28:20.507Z,50.71
2018-04-17T08:29:25.981Z,49.50
2018-04-17T08:30:31.676Z,49.61
2018-04-17T08:31:37.633Z,49.10
2018-04-17T08:32:43.345Z,47.54
2018-04-17T08:33:49.996Z,47.59
2018-04-17T08:34:54.847Z,47.38
2018-04-17T08:35:59.036Z,49.28
2018-04-17T08:37:04.760Z,49.94
2018-04-17T08:38:11.846Z,47.48
2018-04-17T08:39:27.389Z,46.72
2018-04-17T08:40:33.193Z,48.10
2018-04-17T08:41:37.636Z,48.19
2018-04-17T08:42:42.834Z,45.58
2018-04-17T08:43:47.009Z,45.38
2018-04-17T08:44:51.846Z,46.87
2018-04-17T08:45:57.607Z,45.01
2018-04-17T08:47:02.388Z,46.16
2018-04-17T08:48:08.199Z,47.12
2018-04-17T08:49:15.541Z,45.82
2018-04-17T08:50:21.054Z,46.95
2018-04-17T08:51:26.297Z,45.63
2018-04-17T08:52:31.753Z,45.25
2018-04-17T08:53:36.646Z,46.58
2018-04-17T08:54:41.530Z,45.87
2018-04-17T08:55:47.036Z,46.46
2018-04-17T08:56:52.641Z,45.19
2018-04-17T08:57:58.545Z,45.68
2018-04-17T08:59:05.458Z,46.59
2018-04-17T09:00:10.738Z,47.55
2018-04-17T09:01:16.231Z,46.76
2018-04-17T09:02:21.705Z,48.30
2018-04-17T09:03:26.615Z,48.42
2018-04-17T09:04:31.470Z,48.10
2018-04-17T09:05:36.977Z,47.13
2018-04-17T09:06:41.806Z,48.09
2018-04-17T09:07:47.320Z,47.27
2018-04-17T09:08:52.788Z,46.53
2018-04-17T09:09:57.011Z,47.76
2018-04-17T09:11:02.064Z,47.81
2018-04-17T09:12:19.988Z,48.14
2018-04-17T09:13:26.148Z,47.95
2018-04-17T09:14:30.274Z,48.09
2018-04-17T09:15:36.885Z,45.70
2018-04-17T09:16:41.707Z,47.30
2018-04-17T09:17:47.614Z,45.25
2018-04-17T09:18:53.275Z,44.62
2018-04-17T09:19:58.722Z,46.02
2018-04-17T09:21:04.140Z,45.86
2018-04-17T09:22:09.776Z,47.60
2018-04-17T09:23:15.412Z,45.34
2018-04-17T09:24:20.526Z,47.19
2018-04-17T09:25:26.354Z,47.87
2018-04-17T09:26:31.545Z,48.26
2018-04-17T09:27:36.373Z,47.68
2018-04-17T09:28:41.569Z,46.50
2018-04-17T09:29:47.330Z,46.11
2018-04-17T09:30:53.686Z,46.73
2018-04-17T09:31:58.497Z,45.81
2018-04-17T09:33:03.392Z,46.90
2018-04-17T09:34:08.152Z,45.88
2018-04-17T09:35:12.911Z,46.25
2018-04-17T09:36:18.457Z,45.77
2018-04-17T09:37:23.305Z,46.56
2018-04-17T09:38:31.964Z,44.65
2018-04-17T09:39:36.106Z,44.00
2018-04-17T09:40:41.369Z,44.30
2018-04-17T09:41:45.517Z,44.03
2018-04-17T09:42:50.987Z,44.69
2018-04-17T09:44:00.045Z,43.58
2018-04-17T09:45:16.634Z,42.41
2018-04-17T09:46:22.742Z,44.75
2018-04-17T09:47:27.952Z,45.38
2018-04-17T09:48:32.807Z,44.58
2018-04-17T09:49:46.641Z,44.88
2018-04-17T09:50:51.828Z,44.35
2018-04-17T09:51:58.916Z,45.55
2018-04-17T09:53:04.398Z,45.39
2018-04-17T09:54:09.208Z,45.08
2018-04-17T09:55:14.038Z,44.07
2018-04-17T09:56:19.140Z,43.98
2018-04-17T09:57:23.274Z,46.01
2018-04-17T09:58:31.319Z,45.60
2018-04-17T09:59:35.661Z,44.98
2018-04-17T10:00:44.639Z,45.16
2018-04-17T10:01:50.012Z,45.35
2018-04-17T10:02:55.164Z,44.91
2018-04-17T10:03:59.955Z,43.32
2018-04-17T10:05:06.460Z,44.10
2018-04-17T10:06:10.803Z,43.24
2018-04-17T10:07:14.960Z,42.28
2018-04-17T10:08:19.810Z,42.67
2018-04-17T10:09:24.614Z,42.01
2018-04-17T10:10:29.700Z,41.92
2018-04-17T10:11:34.570Z,43.00
2018-04-17T10:12:40.129Z,43.37
2018-04-17T10:13:45.438Z,43.72
2018-04-17T10:14:51.840Z,45.01
2018-04-17T10:15:57.778Z,45.63
2018-04-17T10:17:02.079Z,44.43
2018-04-17T10:18:08.414Z,44.04
2018-04-17T10:19:15.152Z,42.89
2018-04-17T10:20:23.781Z,42.42
2018-04-17T10:21:30.659Z,42.67
2018-04-17T10:22:34.876Z,42.02
2018-04-17T10:23:39.202Z,41.51
2018-04-17T10:24:45.284Z,40.76
2018-04-17T10:25:51.383Z,40.39
2018-04-17T10:26:56.560Z,39.19
2018-04-17T10:28:01.899Z,40.39
2018-04-17T10:29:07.235Z,41.80
2018-04-17T10:30:14.733Z,42.85
2018-04-17T10:31:20.265Z,42.05
2018-04-17T10:32:26.093Z,43.88
2018-04-17T10:33:31.891Z,43.32
2018-04-17T10:34:36.734Z,41.48
2018-04-17T10:35:42.247Z,41.62
2018-04-17T10:36:47.078Z,42.72
2018-04-17T10:37:53.258Z,42.81
2018-04-17T10:38:58.462Z,41.08
2018-04-17T10:40:02.954Z,41.61
2018-04-17T10:41:14.098Z,41.51
2018-04-17T10:42:24.082Z,41.13
2018-04-17T10:43:29.020Z,41.99
2018-04-17T10:44:41.356Z,41.53
2018-04-17T10:45:48.502Z,39.53
2018-04-17T10:46:54.078Z,41.07
2018-04-17T10:48:01.556Z,40.81
2018-04-17T10:49:07.158Z,41.18
2018-04-17T10:50:13.431Z,39.30
2018-04-17T10:51:18.388Z,41.03
2018-04-17T10:52:23.508Z,42.12
2018-04-17T10:53:28.383Z,41.28
2018-04-17T10:54:33.987Z,42.76
2018-04-17T10:55:39.655Z,41.38
2018-04-17T10:56:44.627Z,42.17
2018-04-17T10:57:49.502Z,42.00
2018-04-17T10:58:55.252Z,42.27
2018-04-17T11:00:01.273Z,41.06
2018-04-17T11:01:06.768Z,39.71
2018-04-17T11:02:12.220Z,41.00
2018-04-17T11:03:17.058Z,40.06
2018-04-17T11:04:22.082Z,39.96
2018-04-17T11:05:27.527Z,38.07
2018-04-17T11:06:33.564Z,36.44
2018-04-17T11:07:38.802Z,37.00
2018-04-17T11:08:43.999Z,38.10
2018-04-17T11:09:49.689Z,37.89
2018-04-17T11:10:54.551Z,38.89
2018-04-17T11:11:59.360Z,38.57
2018-04-17T11:13:04.687Z,38.68
2018-04-17T11:14:10.411Z,36.95
2018-04-17T11:15:18.435Z,36.60
2018-04-17T11:16:23.547Z,36.82
2018-04-17T11:17:28.346Z,37.14
2018-04-17T11:18:33.478Z,34.91
2018-04-17T11:19:39.018Z,34.85
2018-04-17T11:20:43.164Z,36.42
2018-04-17T11:21:48.044Z,37.85
2018-04-17T11:22:53.703Z,39.30
2018-04-17T11:23:58.842Z,38.86
2018-04-17T11:25:11.797Z,36.50
2018-04-17T11:26:16.748Z,36.97
2018-04-17T11:27:22.290Z,37.43
2018-04-17T11:28:27.144Z,36.15
2018-04-17T11:29:32.034Z,35.45
2018-04-17T11:30:37.866Z,34.99
2018-04-17T11:31:43.763Z,36.18
2018-04-17T11:32:48.078Z,36.36
2018-04-17T11:33:52.972Z,36.17
2018-04-17T11:34:59.597Z,35.04
2018-04-17T11:36:05.692Z,35.24
2018-04-17T11:37:11.653Z,35.77
2018-04-17T11:38:16.840Z,36.33
2018-04-17T11:39:23.595Z,36.11
2018-04-17T11:40:28.710Z,34.60
2018-04-17T11:41:33.356Z,36.16
2018-04-17T11:42:37.456Z,36.56
2018-04-17T11:43:42.840Z,36.12
2018-04-17T11:44:47.904Z,37.33
2018-04-17T11:45:52.793Z,36.84
2018-04-17T11:46:58.679Z,36.27
2018-04-17T11:48:04.206Z,35.61
2018-04-17T11:49:09.769Z,35.23
2018-04-17T11:50:14.545Z,35.31
2018-04-17T11:51:20.108Z,33.95
2018-04-17T11:52:25.257Z,34.85
2018-04-17T11:53:30.074Z,35.32
2018-04-17T11:54:35.229Z,35.39
2018-04-17T11:55:40.739Z,35.28
2018-04-17T11:56:47.208Z,35.49
2018-04-17T11:57:52.928Z,35.25
2018-04-17T11:58:59.527Z,34.80
2018-04-17T12:00:07.651Z,34.16
2018-04-17T12:01:14.600Z,35.64
2018-04-17T12:02:20.257Z,34.22
2018-04-17T12:03:25.439Z,35.00
2018-04-17T12:04:31.095Z,34.16
2018-04-17T12:05:35.428Z,32.00
2018-04-17T12:06:40.332Z,31.73
2018-04-17T12:07:46.235Z,32.60
2018-04-17T12:08:50.854Z,30.53
2018-04-17T12:09:57.586Z,29.91
2018-04-17T12:11:05.629Z,30.10
2018-04-17T12:12:10.475Z,32.16
2018-04-17T12:13:15.424Z,34.07
2018-04-17T12:14:20.919Z,33.39
2018-04-17T12:15:26.270Z,33.43
2018-04-17T12:16:31.953Z,32.36
2018-04-17T12:17:37.260Z,32.99
2018-04-17T12:18:44.125Z,31.69
2018-04-17T12:19:52.133Z,31.54
2018-04-17T12:20:57.817Z,31.46
2018-04-17T12:22:02.003Z,32.75
2018-04-17T12:23:07.405Z,32.08
2018-04-17T12:24:13.954Z,32.93
2018-04-17T12:25:18.132Z,33.27
2018-04-17T12:26:23.265Z,32.81
2018-04-17T12:27:28.947Z,33.32
2018-04-17T12:28:34.019Z,32.19
2018-04-17T12:29:39.551Z,32.68
2018-04-17T12:30:46.311Z,32.70
2018-04-17T12:31:51.979Z,32.29
2018-04-17T12:32:58.926Z,33.08
2018-04-17T12:34:03.904Z,31.24
2018-04-17T12:35:10.330Z,29.59
2018-04-17T12:36:15.909Z,31.18
2018-04-17T12:37:21.365Z,31.05
2018-04-17T12:38:26.393Z,32.22
2018-04-17T12:39:32.018Z,30.89
2018-04-17T12:40:37.506Z,31.52
2018-04-17T12:41:42.342Z,31.50
2018-04-17T12:42:48.243Z,31.23
2018-04-17T12:43:54.207Z,31.20
2018-04-17T12:45:00.780Z,32.07
2018-04-17T12:47:18.570Z,31.26
2018-04-17T12:48:24.666Z,30.66
2018-04-17T12:49:29.140Z,30.12
2018-04-17T12:50:34.660Z,29.72
2018-04-17T12:51:38.933Z,29.99
2018-04-17T12:52:44.796Z,30.62
2018-04-17T12:53:49.325Z,30.04
2018-04-17T12:54:55.807Z,31.86
2018-04-17T12:55:59.993Z,32.21
2018-04-17T12:57:04.785Z,32.19
2018-04-17T12:58:10.198Z,31.78
2018-04-17T12:59:15.149Z,30.79
2018-04-17T13:00:20.318Z,29.42
2018-04-17T13:01:25.472Z,28.96
2018-04-17T13:02:29.723Z,28.60
2018-04-17T13:03:34.629Z,29.02
2018-04-17T13:04:39.977Z,30.52
2018-04-17T13:05:44.930Z,29.02
2018-04-17T13:06:49.853Z,30.11
2018-04-17T13:07:55.807Z,30.06
2018-04-17T13:09:01.296Z,30.29
2018-04-17T13:10:06.201Z,29.93
2018-04-17T13:11:12.805Z,29.91
2018-04-17T13:12:18.031Z,28.54
2018-04-17T13:13:23.083Z,28.96
2018-04-17T13:14:27.880Z,30.54
2018-04-17T13:15:33.194Z,31.51
2018-04-17T13:16:39.585Z,31.56
2018-04-17T13:17:44.242Z,32.10
2018-04-17T13:18:49.334Z,32.09
2018-04-17T13:19:54.358Z,32.72
2018-04-17T13:20:59.776Z,33.54
2018-04-17T13:22:05.921Z,32.84
2018-04-17T13:23:11.502Z,30.86
2018-04-17T13:24:22.065Z,31.53
2018-04-17T13:25:26.843Z,30.03
2018-04-17T13:26:31.041Z,29.46
2018-04-17T13:27:36.119Z,28.94
2018-04-17T13:28:40.925Z,29.21
2018-04-17T13:29:46.552Z,30.02
2018-04-17T13:30:53.263Z,28.38
2018-04-17T13:31:59.155Z,27.91
2018-04-17T13:33:04.256Z,28.53
2018-04-17T13:34:09.343Z,28.21
2018-04-17T13:35:15.046Z,26.71
2018-04-17T13:36:19.987Z,26.46
2018-04-17T13:37:25.261Z,25.83
2018-04-17T13:38:30.045Z,26.38
2018-04-17T13:39:34.953Z,26.45
2018-04-17T13:40:41.489Z,27.13
2018-04-17T13:41:46.464Z,27.82
2018-04-17T13:42:52.182Z,28.69
2018-04-17T13:43:58.167Z,28.84
2018-04-17T13:45:04.624Z,29.32
2018-04-17T13:46:10.671Z,29.71
2018-04-17T13:47:15.780Z,29.45
2018-04-17T13:48:21.030Z,28.72
2018-04-17T13:49:25.219Z,29.87
2018-04-17T13:50:30.160Z,30.48
2018-04-17T13:51:37.094Z,29.22
2018-04-17T13:52:42.667Z,29.00
2018-04-17T13:53:47.909Z,30.04
2018-04-17T13:54:52.325Z,30.55
2018-04-17T13:55:58.283Z,30.00
2018-04-17T13:57:03.693Z,30.43
2018-04-17T13:58:09.604Z,30.55
2018-04-17T13:59:15.095Z,30.35
2018-04-17T14:00:20.400Z,30.31
2018-04-17T14:01:25.711Z,30.22
2018-04-17T14:02:30.641Z,29.51
2018-04-17T14:03:36.121Z,29.08
2018-04-17T14:04:41.176Z,28.08
2018-04-17T14:05:45.905Z,26.75
2018-04-17T14:06:51.725Z,26.50
2018-04-17T14:07:56.492Z,25.07
2018-04-17T14:09:01.349Z,24.98
2018-04-17T14:10:07.571Z,26.22
2018-04-17T14:11:12.591Z,27.71